createdAt,value
2022-08-22T00:02:12.933Z,97703.75
2022-08-22T00:02:57.280Z,97645.41
2022-08-22T00:02:59.713Z,97637.59
2022-08-22T00:03:02.258Z,97670.47
2022-08-22T00:03:12.013Z,97640.44
2022-08-22T00:04:44.911Z,97709.66
2022-08-22T00:07:21.898Z,97708.28
2022-08-22T00:10:01.610Z,97707.22
2022-08-22T00:12:38.671Z,97704.19
2022-08-22T00:15:13.231Z,97701.97
2022-08-22T00:18:10.346Z,97702.44
2022-08-22T00:20:45.522Z,97709.00
2022-08-22T00:23:19.464Z,97711.13
2022-08-22T00:25:55.784Z,97713.28
2022-08-22T00:28:29.246Z,97707.25
2022-08-22T00:31:09.089Z,97707.50
2022-08-22T00:33:46.679Z,97709.66
2022-08-22T00:36:23.910Z,97702.56
2022-08-22T00:39:09.156Z,97706.03
2022-08-22T00:42:10.095Z,97710.91
2022-08-22T00:45:13.770Z,97705.47
2022-08-22T00:47:57.888Z,97707.03
2022-08-22T00:50:46.532Z,97704.81
2022-08-22T00:53:31.661Z,97700.19
2022-08-22T00:56:26.237Z,97697.97
2022-08-22T00:59:22.817Z,97696.59
2022-08-22T01:01:56.257Z,97692.72
2022-08-22T01:04:51.006Z,97686.69
2022-08-22T01:07:39.281Z,97686.97
2022-08-22T01:10:24.306Z,97694.53
2022-08-22T01:13:18.188Z,97686.66
2022-08-22T01:15:51.456Z,97698.81
2022-08-22T01:18:50.357Z,97700.97
2022-08-22T01:21:51.521Z,97701.47
2022-08-22T01:25:17.036Z,97700.88
2022-08-22T01:28:19.742Z,97696.28
2022-08-22T01:31:33.353Z,97700.28
2022-08-22T01:34:30.245Z,97698.88
2022-08-22T01:37:43.598Z,97696.41
2022-08-22T01:40:53.514Z,97702.31
2022-08-22T01:43:58.555Z,97699.88
2022-08-22T01:46:36.603Z,97701.44
2022-08-22T01:49:13.015Z,97702.50
2022-08-22T01:51:48.879Z,97700.00
2022-08-22T01:54:27.671Z,97705.94
2022-08-22T01:57:01.740Z,97702.66
2022-08-22T01:59:34.797Z,97711.63
2022-08-22T02:02:36.663Z,97716.47
2022-08-22T02:05:10.504Z,97713.19
2022-08-22T02:07:49.187Z,97710.94
2022-08-22T02:10:23.737Z,97715.00
2022-08-22T02:13:03.549Z,97713.59
2022-08-22T02:15:45.085Z,97711.94
2022-08-22T02:18:32.139Z,97717.59
2022-08-22T02:21:06.109Z,97717.88
2022-08-22T02:23:47.020Z,97719.16
2022-08-22T02:26:20.414Z,97712.09
2022-08-22T02:28:56.711Z,97711.50
2022-08-22T02:31:37.783Z,97707.97
2022-08-22T02:34:21.445Z,97717.66
2022-08-22T02:36:58.192Z,97720.66
2022-08-22T02:39:38.624Z,97723.34
2022-08-22T02:42:25.951Z,97711.09
2022-08-22T02:45:04.112Z,97716.19
2022-08-22T02:47:41.338Z,97717.50
2022-08-22T02:50:19.742Z,97715.03
2022-08-22T02:52:59.502Z,97717.72
2022-08-22T02:55:43.075Z,97717.16
2022-08-22T02:58:20.540Z,97714.09
2022-08-22T03:00:51.483Z,97714.34
2022-08-22T03:03:24.666Z,97718.13
2022-08-22T03:06:01.340Z,97709.66
2022-08-22T03:08:32.996Z,97709.88
2022-08-22T03:11:19.720Z,97713.09
2022-08-22T03:14:04.457Z,97714.13
2022-08-22T03:16:39.665Z,97716.06
2022-08-22T03:19:14.866Z,97720.06
2022-08-22T03:21:58.090Z,97719.22
2022-08-22T03:24:38.520Z,97719.50
2022-08-22T03:27:32.355Z,97725.97
2022-08-22T03:30:06.947Z,97724.81
2022-08-22T03:32:54.565Z,97725.03
2022-08-22T03:35:32.356Z,97726.13
2022-08-22T03:38:18.048Z,97721.97
2022-08-22T03:40:54.543Z,97730.38
2022-08-22T03:43:45.313Z,97734.63
2022-08-22T03:46:43.328Z,97731.09
2022-08-22T03:49:40.747Z,97735.91
2022-08-22T03:52:31.739Z,97730.72
2022-08-22T03:55:21.932Z,97736.16
2022-08-22T03:58:27.747Z,97736.03
2022-08-22T04:01:37.801Z,97733.31
2022-08-22T04:04:33.966Z,97738.97
2022-08-22T04:07:35.340Z,97740.78
2022-08-22T04:10:44.772Z,97737.22
2022-08-22T04:13:35.488Z,97743.13
2022-08-22T04:16:39.222Z,97745.25
2022-08-22T04:19:28.135Z,97747.38
2022-08-22T04:22:22.533Z,97748.44
2022-08-22T04:24:57.088Z,97746.78
2022-08-22T04:27:30.241Z,97757.63
2022-08-22T04:30:03.762Z,97754.56
2022-08-22T04:32:38.580Z,97751.03
2022-08-22T04:35:11.222Z,97753.19
2022-08-22T04:37:46.472Z,97761.53
2022-08-22T04:40:24.651Z,97766.94
2022-08-22T04:42:58.205Z,97762.84
2022-08-22T04:45:32.911Z,97761.75
2022-08-22T04:48:08.787Z,97763.63
2022-08-22T04:50:43.195Z,97761.19
2022-08-22T04:53:23.223Z,97764.94
2022-08-22T04:56:04.145Z,97767.66
2022-08-22T04:58:44.897Z,97772.03
2022-08-22T05:01:17.828Z,97773.69
2022-08-22T05:03:54.850Z,97779.78
2022-08-22T05:06:26.484Z,97776.47
2022-08-22T05:08:54.987Z,97776.22
2022-08-22T05:11:24.671Z,97781.09
2022-08-22T05:13:56.869Z,97781.88
2022-08-22T05:16:29.181Z,97783.53
2022-08-22T05:19:04.154Z,97788.03
2022-08-22T05:21:34.949Z,97782.25
2022-08-22T05:24:07.100Z,97787.63
2022-08-22T05:26:38.894Z,97787.41
2022-08-22T05:29:10.454Z,97781.03
2022-08-22T05:31:42.678Z,97786.22
2022-08-22T05:34:16.395Z,97790.84
2022-08-22T05:36:47.604Z,97777.41
2022-08-22T05:39:19.698Z,97780.06
2022-08-22T05:41:48.261Z,97779.47
2022-08-22T05:44:20.674Z,97777.56
2022-08-22T05:46:52.673Z,97778.31
2022-08-22T05:49:30.202Z,97782.16
2022-08-22T05:52:09.239Z,97789.16
2022-08-22T05:54:49.973Z,97792.75
2022-08-22T05:57:27.882Z,97792.19
2022-08-22T06:00:01.944Z,97792.31
2022-08-22T06:02:46.565Z,97789.47
2022-08-22T06:05:24.511Z,97795.47
2022-08-22T06:07:56.203Z,97788.66
2022-08-22T06:10:28.997Z,97794.91
2022-08-22T06:13:02.013Z,97793.84
2022-08-22T06:15:38.604Z,97795.13
2022-08-22T06:18:10.398Z,97796.94
2022-08-22T06:20:43.443Z,97797.50
2022-08-22T06:23:16.458Z,97797.75
2022-08-22T06:25:47.629Z,97803.66
2022-08-22T06:28:22.779Z,97806.13
2022-08-22T06:30:54.100Z,97800.81
2022-08-22T06:33:27.490Z,97803.03
2022-08-22T06:36:20.644Z,97796.34
2022-08-22T06:38:58.424Z,97800.19
2022-08-22T06:41:30.479Z,97798.50
2022-08-22T06:43:59.572Z,97801.06
2022-08-22T06:46:29.787Z,97795.53
2022-08-22T06:49:00.420Z,97800.25
2022-08-22T06:51:30.802Z,97797.09
2022-08-22T06:54:03.096Z,97799.34
2022-08-22T06:56:37.430Z,97798.47
2022-08-22T06:59:09.868Z,97791.91
2022-08-22T07:01:53.339Z,97800.78
2022-08-22T07:04:26.540Z,97794.28
2022-08-22T07:06:58.361Z,97795.53
2022-08-22T07:09:29.179Z,97795.63
2022-08-22T07:12:00.725Z,97793.81
2022-08-22T07:14:32.057Z,97795.06
2022-08-22T07:17:02.013Z,97785.50
2022-08-22T07:19:34.701Z,97789.53
2022-08-22T07:22:14.569Z,97792.47
2022-08-22T07:24:51.943Z,97792.06
2022-08-22T07:27:32.065Z,97797.34
2022-08-22T07:30:10.262Z,97790.59
2022-08-22T07:32:48.141Z,97787.44
2022-08-22T07:35:19.043Z,97793.66
2022-08-22T07:37:59.220Z,97798.00
2022-08-22T07:40:33.636Z,97794.94
2022-08-22T07:43:16.590Z,97796.44
2022-08-22T07:45:51.474Z,97793.38
2022-08-22T07:48:27.025Z,97793.88
2022-08-22T07:51:01.986Z,97793.38
2022-08-22T07:53:39.460Z,97792.72
2022-08-22T07:56:10.681Z,97798.47
2022-08-22T07:58:42.016Z,97797.22
2022-08-22T08:01:12.347Z,97793.38
2022-08-22T08:03:40.400Z,97792.03
2022-08-22T08:06:10.504Z,97797.03
2022-08-22T08:08:42.518Z,97794.97
2022-08-22T08:11:12.817Z,97791.78
2022-08-22T08:13:44.864Z,97788.75
2022-08-22T08:16:24.626Z,97792.88
2022-08-22T08:18:56.674Z,97794.56
2022-08-22T08:21:31.416Z,97790.75
2022-08-22T08:24:02.392Z,97790.75
2022-08-22T08:26:34.898Z,97795.44
2022-08-22T08:29:03.911Z,97796.69
2022-08-22T08:31:35.545Z,97794.91
2022-08-22T08:34:06.918Z,97798.88
2022-08-22T08:36:40.493Z,97791.78
2022-08-22T08:39:20.491Z,97795.28
2022-08-22T08:42:23.953Z,97797.75
2022-08-22T08:45:12.696Z,97789.13
2022-08-22T08:47:56.629Z,97788.13
2022-08-22T08:50:46.933Z,97785.72
2022-08-22T08:53:43.284Z,97795.94
2022-08-22T08:56:20.165Z,97792.81
2022-08-22T08:58:55.695Z,97789.63
2022-08-22T09:01:42.244Z,97792.13
2022-08-22T09:04:53.724Z,97795.91
2022-08-22T09:08:07.456Z,97797.78
2022-08-22T09:11:09.577Z,97791.19
2022-08-22T09:13:56.057Z,97787.09
2022-08-22T09:19:57.817Z,97789.38
2022-08-22T09:22:50.098Z,97789.75
2022-08-22T09:25:25.037Z,97784.09
2022-08-22T09:27:59.557Z,97784.06
2022-08-22T09:30:54.174Z,97790.09
2022-08-22T09:33:54.614Z,97789.59
2022-08-22T09:36:26.076Z,97784.44
2022-08-22T09:38:58.761Z,97790.53
2022-08-22T09:41:36.947Z,97791.88
2022-08-22T09:44:16.554Z,97783.16
2022-08-22T09:46:56.276Z,97778.50
2022-08-22T09:49:32.786Z,97781.25
2022-08-22T09:52:14.498Z,97776.63
2022-08-22T09:54:49.253Z,97777.75
2022-08-22T09:57:24.164Z,97766.00
2022-08-22T10:00:13.901Z,97770.69
2022-08-22T10:02:51.547Z,97778.09
2022-08-22T10:05:41.207Z,97779.69
2022-08-22T10:08:37.763Z,97767.41
2022-08-22T10:11:19.518Z,97767.13
2022-08-22T10:13:57.427Z,97778.88
2022-08-22T10:16:43.844Z,97778.63
2022-08-22T10:19:18.987Z,97781.53
2022-08-22T10:22:14.500Z,97785.41
2022-08-22T10:24:49.029Z,97777.00
2022-08-22T10:27:22.938Z,97781.91
2022-08-22T10:30:08.041Z,97786.00
2022-08-22T10:32:40.984Z,97789.84
2022-08-22T10:35:21.366Z,97780.78
2022-08-22T10:37:57.739Z,97786.84
2022-08-22T10:40:30.358Z,97781.91
2022-08-22T10:43:03.786Z,97778.88
2022-08-22T10:45:37.048Z,97783.25
2022-08-22T10:48:44.410Z,97793.69
2022-08-22T10:51:24.037Z,97788.72
2022-08-22T10:54:19.767Z,97792.53
2022-08-22T10:56:55.484Z,97783.28
2022-08-22T10:59:41.136Z,97782.47
2022-08-22T11:02:24.276Z,97781.31
2022-08-22T11:05:14.834Z,97781.34
2022-08-22T11:07:50.240Z,97780.81
2022-08-22T11:10:28.433Z,97781.88
2022-08-22T11:13:11.557Z,97780.00
2022-08-22T11:15:59.052Z,97772.63
2022-08-22T11:18:39.355Z,97768.75
2022-08-22T11:21:17.070Z,97771.78
2022-08-22T11:24:00.664Z,97758.38
2022-08-22T11:26:46.869Z,97768.25
2022-08-22T11:29:30.227Z,97752.91
2022-08-22T11:32:06.150Z,97746.00
2022-08-22T11:34:50.964Z,97747.13
2022-08-22T11:37:43.664Z,97751.00
2022-08-22T11:40:24.787Z,97747.69
2022-08-22T11:43:00.678Z,97745.19
2022-08-22T11:45:37.743Z,97739.72
2022-08-22T11:48:17.035Z,97740.31
2022-08-22T11:50:49.806Z,97739.78
2022-08-22T11:53:34.347Z,97739.25
2022-08-22T11:56:17.114Z,97731.53
2022-08-22T11:58:55.441Z,97724.63
2022-08-22T12:01:34.508Z,97734.72
2022-08-22T12:04:10.181Z,97732.31
2022-08-22T12:06:55.308Z,97724.72
2022-08-22T12:09:38.583Z,97719.28
2022-08-22T12:12:20.091Z,97727.72
2022-08-22T12:14:56.999Z,97723.06
2022-08-22T12:17:55.142Z,97710.16
2022-08-22T12:20:46.133Z,97707.69
2022-08-22T12:23:50.308Z,97702.66
2022-08-22T12:26:28.992Z,97695.44
2022-08-22T12:29:15.444Z,97691.78
2022-08-22T12:32:18.032Z,97697.88
2022-08-22T12:35:14.049Z,97691.13
2022-08-22T12:37:52.842Z,97685.91
2022-08-22T12:40:36.590Z,97686.19
2022-08-22T12:43:32.725Z,97673.59
2022-08-22T12:46:18.006Z,97682.72
2022-08-22T12:49:00.636Z,97684.50
2022-08-22T12:51:44.915Z,97681.41
2022-08-22T12:54:35.285Z,97674.03
2022-08-22T12:57:23.286Z,97669.69
2022-08-22T13:02:53.500Z,97671.63
2022-08-22T13:05:25.754Z,97669.38
2022-08-22T13:08:01.192Z,97654.34
2022-08-22T13:10:38.985Z,97663.09
2022-08-22T13:13:12.340Z,97671.13
2022-08-22T13:15:45.916Z,97661.97
2022-08-22T13:18:30.240Z,97658.25
2022-08-22T13:21:02.346Z,97658.50
2022-08-22T13:23:34.372Z,97657.06
2022-08-22T13:26:16.413Z,97654.91
2022-08-22T13:29:24.478Z,97661.16
2022-08-22T13:31:55.288Z,97670.97
2022-08-22T13:34:39.694Z,97667.22
2022-08-22T13:37:12.827Z,97669.25
2022-08-22T13:39:45.053Z,97666.25
2022-08-22T13:42:27.779Z,97666.41
2022-08-22T13:45:04.340Z,97664.09
2022-08-22T13:47:39.654Z,97659.88
2022-08-22T13:50:14.508Z,97662.28
2022-08-22T13:52:52.523Z,97661.22
2022-08-22T13:55:29.661Z,97665.50
2022-08-22T13:58:02.748Z,97661.22
2022-08-22T14:01:13.582Z,97658.72
2022-08-22T14:03:48.676Z,97657.75
2022-08-22T14:06:37.360Z,97664.91
2022-08-22T14:09:14.999Z,97654.16
2022-08-22T14:11:48.947Z,97657.34
2022-08-22T14:14:25.080Z,97649.09
2022-08-22T14:16:56.131Z,97654.91
2022-08-22T14:19:28.709Z,97662.00
2022-08-22T14:22:01.843Z,97655.13
2022-08-22T14:24:34.365Z,97660.31
2022-08-22T14:27:15.893Z,97656.31
2022-08-22T14:29:50.417Z,97668.44
2022-08-22T14:32:36.242Z,97660.78
2022-08-22T14:35:23.472Z,97659.91
2022-08-22T14:38:27.358Z,97659.88
2022-08-22T14:41:03.345Z,97656.16
2022-08-22T14:43:48.399Z,97661.22
2022-08-22T14:46:26.640Z,97662.75
2022-08-22T14:49:24.903Z,97666.41
2022-08-22T14:52:00.481Z,97667.25
2022-08-22T14:54:31.983Z,97665.00
2022-08-22T14:57:04.781Z,97675.31
2022-08-22T14:59:50.310Z,97663.00
2022-08-22T15:02:26.235Z,97662.59
2022-08-22T15:04:56.568Z,97655.66
2022-08-22T15:07:27.088Z,97667.13
2022-08-22T15:10:01.127Z,97664.31
2022-08-22T15:12:35.061Z,97658.88
2022-08-22T15:15:06.688Z,97664.75
2022-08-22T15:17:44.466Z,97655.78
2022-08-22T15:20:27.833Z,97652.72
2022-08-22T15:22:59.301Z,97655.31
2022-08-22T15:25:33.411Z,97648.91
2022-08-22T15:28:05.863Z,97646.59
2022-08-22T15:30:37.598Z,97647.31
2022-08-22T15:33:15.652Z,97655.09
2022-08-22T15:35:45.360Z,97640.44
2022-08-22T15:38:31.016Z,97634.41
2022-08-22T15:41:32.212Z,97633.09
2022-08-22T15:44:09.210Z,97632.03
2022-08-22T15:46:45.928Z,97630.84
2022-08-22T15:49:28.804Z,97631.72
2022-08-22T15:52:11.138Z,97632.38
2022-08-22T15:55:21.199Z,97640.50
2022-08-22T15:58:00.274Z,97625.78
2022-08-22T16:00:34.448Z,97627.38
2022-08-22T16:03:06.779Z,97614.84
2022-08-22T16:05:53.273Z,97614.28
2022-08-22T16:08:32.693Z,97624.31
2022-08-22T16:11:26.007Z,97619.66
2022-08-22T16:14:24.227Z,97615.41
2022-08-22T16:16:59.943Z,97612.19
2022-08-22T16:19:29.580Z,97612.00
2022-08-22T16:22:17.947Z,97613.28
2022-08-22T16:25:10.719Z,97606.41
2022-08-22T16:27:53.757Z,97608.03
2022-08-22T16:30:37.206Z,97609.84
2022-08-22T16:33:07.071Z,97599.63
2022-08-22T16:36:22.267Z,97609.84
2022-08-22T16:38:52.967Z,97613.94
2022-08-22T16:41:34.230Z,97607.25
2022-08-22T16:44:33.624Z,97612.44
2022-08-22T16:47:12.756Z,97614.66
2022-08-22T16:49:57.355Z,97611.69
2022-08-22T16:53:01.737Z,97618.31
2022-08-22T16:55:58.827Z,97613.47
2022-08-22T16:59:14.133Z,97615.84
2022-08-22T17:02:10.573Z,97621.97
2022-08-22T17:04:51.655Z,97613.09
2022-08-22T17:07:33.724Z,97615.31
2022-08-22T17:10:23.502Z,97620.91
2022-08-22T17:13:10.284Z,97621.47
2022-08-22T17:15:53.907Z,97625.66
2022-08-22T17:18:36.363Z,97617.91
2022-08-22T17:21:11.727Z,97627.66
2022-08-22T17:23:50.478Z,97627.44
2022-08-22T17:26:35.852Z,97632.41
2022-08-22T17:29:12.881Z,97625.06
2022-08-22T17:31:49.366Z,97631.94
2022-08-22T17:34:33.573Z,97630.59
2022-08-22T17:37:09.964Z,97635.03
2022-08-22T17:39:55.653Z,97638.06
2022-08-22T17:42:44.664Z,97638.66
2022-08-22T17:45:27.583Z,97640.34
2022-08-22T17:48:02.281Z,97642.50
2022-08-22T17:50:39.305Z,97645.81
2022-08-22T17:53:16.309Z,97647.75
2022-08-22T17:55:58.953Z,97654.59
2022-08-22T17:58:35.717Z,97649.69
2022-08-22T18:01:16.105Z,97650.78
2022-08-22T18:03:50.977Z,97660.66
2022-08-22T18:06:23.758Z,97657.66
2022-08-22T18:11:51.116Z,97659.84
2022-08-22T18:14:28.438Z,97657.41
2022-08-22T18:16:59.050Z,97658.50
2022-08-22T18:19:43.218Z,97670.81
2022-08-22T18:22:20.658Z,97670.84
2022-08-22T18:24:55.174Z,97668.94
2022-08-22T18:27:32.594Z,97668.41
2022-08-22T18:30:15.742Z,97679.09
2022-08-22T18:32:52.303Z,97675.78
2022-08-22T18:35:26.015Z,97682.59
2022-08-22T18:38:03.415Z,97681.25
2022-08-22T18:40:53.383Z,97688.09
2022-08-22T18:43:26.980Z,97687.00
2022-08-22T18:46:03.266Z,97690.00
2022-08-22T18:48:54.468Z,97689.75
2022-08-22T18:51:30.340Z,97686.22
2022-08-22T18:54:20.690Z,97698.78
2022-08-22T18:56:54.606Z,97697.97
2022-08-22T18:59:42.315Z,97704.50
2022-08-22T19:02:26.879Z,97700.41
2022-08-22T19:05:28.517Z,97709.97
2022-08-22T19:08:21.446Z,97712.69
2022-08-22T19:11:06.070Z,97711.03
2022-08-22T19:14:08.765Z,97714.59
2022-08-22T19:17:04.494Z,97718.41
2022-08-22T19:20:02.103Z,97726.56
2022-08-22T19:22:34.117Z,97720.00
2022-08-22T19:25:18.159Z,97732.78
2022-08-22T19:27:48.589Z,97725.44
2022-08-22T19:30:42.020Z,97735.22
2022-08-22T19:33:11.451Z,97727.81
2022-08-22T19:36:05.544Z,97725.94
2022-08-22T19:38:57.490Z,97734.63
2022-08-22T19:41:45.228Z,97730.25
2022-08-22T19:44:34.480Z,97731.06
2022-08-22T19:47:11.559Z,97736.44
2022-08-22T19:49:41.972Z,97741.69
2022-08-22T19:52:20.846Z,97741.94
2022-08-22T19:55:01.633Z,97745.50
2022-08-22T19:57:40.614Z,97737.34
2022-08-22T20:00:12.530Z,97750.66
2022-08-22T20:02:59.868Z,97746.56
2022-08-22T20:05:37.534Z,97755.56
2022-08-22T20:08:25.351Z,97753.59
2022-08-22T20:11:03.252Z,97753.03
2022-08-22T20:13:34.131Z,97747.53
2022-08-22T20:16:10.615Z,97755.72
2022-08-22T20:19:12.241Z,97744.81
2022-08-22T20:21:46.875Z,97747.66
2022-08-22T20:24:20.821Z,97748.50
2022-08-22T20:27:12.124Z,97748.34
2022-08-22T20:29:43.025Z,97756.53
2022-08-22T20:32:13.795Z,97749.66
2022-08-22T20:34:43.542Z,97756.19
2022-08-22T20:37:45.020Z,97759.50
2022-08-22T20:40:54.919Z,97759.22
2022-08-22T20:43:11.930Z,97762.78
2022-08-22T20:45:50.578Z,97756.53
2022-08-22T20:48:18.309Z,97759.56
2022-08-22T20:50:47.271Z,97759.50
2022-08-22T20:53:20.324Z,97752.91
2022-08-22T20:55:54.781Z,97752.38
2022-08-22T20:58:28.316Z,97760.28
2022-08-22T21:01:00.069Z,97758.91
2022-08-22T21:03:37.471Z,97758.06
2022-08-22T21:06:14.989Z,97761.31
2022-08-22T21:08:44.779Z,97755.84
2022-08-22T21:11:39.705Z,97757.22
2022-08-22T21:14:19.827Z,97752.81
2022-08-22T21:16:47.478Z,97753.63
2022-08-22T21:19:19.117Z,97752.50
2022-08-22T21:21:48.293Z,97754.69
2022-08-22T21:24:16.210Z,97756.53
2022-08-22T21:26:50.347Z,97749.97
2022-08-22T21:29:26.660Z,97752.41
2022-08-22T21:32:08.672Z,97753.16
2022-08-22T21:34:41.855Z,97758.63
2022-08-22T21:37:14.946Z,97754.78
2022-08-22T21:39:46.974Z,97755.06
2022-08-22T21:42:24.139Z,97754.19
2022-08-22T21:44:57.706Z,97753.63
2022-08-22T21:47:31.601Z,97766.69
2022-08-22T21:50:15.662Z,97761.50
2022-08-22T21:53:00.695Z,97761.22
2022-08-22T21:55:30.334Z,97759.56
2022-08-22T21:58:12.102Z,97756.78
2022-08-22T22:00:51.958Z,97758.91
2022-08-22T22:03:22.109Z,97762.41
2022-08-22T22:05:50.741Z,97756.94
2022-08-22T22:08:20.300Z,97763.41
2022-08-22T22:10:49.608Z,97759.28
2022-08-22T22:13:19.942Z,97763.34
2022-08-22T22:15:53.791Z,97765.50
2022-08-22T22:18:23.333Z,97759.75
2022-08-22T22:20:53.259Z,97761.34
2022-08-22T22:23:23.202Z,97766.78
2022-08-22T22:25:52.167Z,97765.66
2022-08-22T22:28:23.202Z,97776.00
2022-08-22T22:30:53.314Z,97780.56
2022-08-22T22:33:24.035Z,97780.78
2022-08-22T22:35:52.559Z,97786.22
2022-08-22T22:38:24.114Z,97783.72
2022-08-22T22:40:53.979Z,97780.19
2022-08-22T22:43:21.954Z,97785.06
2022-08-22T22:45:49.881Z,97785.31
2022-08-22T22:48:24.123Z,97783.34
2022-08-22T22:50:52.613Z,97785.53
2022-08-22T22:53:21.495Z,97789.31
2022-08-22T22:56:09.162Z,97788.50
2022-08-22T22:58:37.011Z,97794.19
2022-08-22T23:01:08.486Z,97791.72
2022-08-22T23:03:36.242Z,97787.63
2022-08-22T23:06:03.845Z,97790.81
2022-08-22T23:08:31.763Z,97784.84
2022-08-22T23:10:59.529Z,97785.91
2022-08-22T23:13:28.499Z,97784.53
2022-08-22T23:15:56.296Z,97775.22
2022-08-22T23:18:30.294Z,97782.56
2022-08-22T23:20:58.196Z,97789.56
2022-08-22T23:23:25.971Z,97783.81
2022-08-22T23:25:53.525Z,97787.09
2022-08-22T23:28:21.228Z,97777.78
2022-08-22T23:30:50.136Z,97776.66
2022-08-22T23:33:17.793Z,97778.22
2022-08-22T23:35:45.361Z,97778.75
2022-08-22T23:38:13.010Z,97782.81
2022-08-22T23:40:40.570Z,97783.03
2022-08-22T23:43:08.247Z,97783.50
2022-08-22T23:45:35.821Z,97780.47
2022-08-22T23:48:05.072Z,97781.78
2022-08-22T23:50:32.630Z,97785.59
2022-08-22T23:53:00.421Z,97780.63
2022-08-22T23:55:27.999Z,97778.44
2022-08-22T23:57:55.607Z,97778.94
